Terminal Aerodrome Forecast
Issued by NWS

Home | Current Version | Previous Version | Text Only | Print | Product List | Glossary On
Versions: 1 2 3 4 5 6 7 8 9 10 11 12
510
FTUS42 KGSP 191135
TAFGMU
TAF
KGMU 191135Z 1912/2012 VRB03KT P6SM SCT080
     FM191800 22004KT P6SM SCT045
     FM200000 VRB03KT P6SM SCT060=

USA.gov is the U.S. government's official web portal to all federal, state and local government web resources and services.